Aviation Digital Data Service (ADDS)

Output produced by METARs form (0917 UTC 24 March 2019)
found at http://www.aviationweather.gov/metar/data/
 
Forecast for: GMAD (AL MASSIRA MC , MA)
Text: TAF GMAD 240500Z 2406/2512 06012KT 8000 SCT030 BKN080
Forecast period: 0600 to 1000 UTC 24 March 2019
Forecast type: FROM: standard forecast or significant change
Winds: from the ENE (60 degrees) at 14 MPH (12 knots; 6.2 m/s)
Visibility: 5 miles (8 km)
Ceiling: 8000 feet AGL
Clouds: scattered clouds at 3000 feet AGL
broken clouds at 8000 feet AGL
Weather: no significant weather forecast for this period
Text: BECMG 2410/2412 260008KT
Forecast period: 1000 UTC 24 March 2019 to 1200 UTC 25 March 2019
Forecast type: BECOMING: Conditions expected to become as follows by 1200 UTC 24 March 2019
Winds: from the W (260 degrees) at 9 MPH (8 knots; 4.1 m/s)
Visibility: 5 miles (8 km)
Ceiling: 8000 feet AGL
Clouds: scattered clouds at 3000 feet AGL
broken clouds at 8000 feet AGL
Weather: no significant weather forecast for this period